createdAt,value
2023-02-21T00:00:17.711Z,6.70
2023-02-21T00:03:26.950Z,7.00
2023-02-21T00:06:15.940Z,9.30
2023-02-21T00:09:05.690Z,8.40
2023-02-21T00:11:53.951Z,8.80
2023-02-21T00:14:42.752Z,7.60
2023-02-21T00:17:31.285Z,7.70
2023-02-21T00:20:20.034Z,8.30
2023-02-21T00:23:08.043Z,7.60
2023-02-21T00:25:56.590Z,5.80
2023-02-21T00:28:44.792Z,6.50
2023-02-21T00:31:36.858Z,8.20
2023-02-21T00:34:24.998Z,6.70
2023-02-21T00:37:14.883Z,10.80
2023-02-21T00:40:03.899Z,6.40
2023-02-21T00:42:51.980Z,6.70
2023-02-21T00:45:40.405Z,8.40
2023-02-21T00:48:28.881Z,10.00
2023-02-21T00:51:19.281Z,6.80
2023-02-21T00:54:07.718Z,8.00
2023-02-21T00:56:56.333Z,6.30
2023-02-21T00:59:45.132Z,6.80
2023-02-21T01:02:33.677Z,7.80
2023-02-21T01:05:23.063Z,5.40
2023-02-21T01:08:11.813Z,6.00
2023-02-21T01:11:02.825Z,7.20
2023-02-21T01:13:51.071Z,6.00
2023-02-21T01:16:40.165Z,6.70
2023-02-21T01:19:28.681Z,6.90
2023-02-21T01:22:17.339Z,8.40
2023-02-21T01:25:07.589Z,6.30
2023-02-21T01:27:56.592Z,5.40
2023-02-21T01:30:45.182Z,5.40
2023-02-21T01:33:33.593Z,7.20
2023-02-21T01:36:24.380Z,8.00
2023-02-21T01:39:13.647Z,5.70
2023-02-21T01:42:01.920Z,7.50
2023-02-21T01:44:56.693Z,7.20
2023-02-21T01:47:45.509Z,8.80
2023-02-21T01:50:37.248Z,7.50
2023-02-21T01:53:27.417Z,7.00
2023-02-21T01:56:16.629Z,9.00
2023-02-21T01:59:05.585Z,7.40
2023-02-21T02:01:56.099Z,7.00
2023-02-21T02:04:44.357Z,7.70
2023-02-21T02:07:32.839Z,10.20
2023-02-21T02:10:21.428Z,5.60
2023-02-21T02:12:59.904Z,8.30
2023-02-21T02:15:43.148Z,8.30
2023-02-21T02:18:22.310Z,7.20
2023-02-21T02:21:07.182Z,6.10
2023-02-21T02:23:50.642Z,6.00
2023-02-21T02:26:53.196Z,6.50
2023-02-21T02:29:39.101Z,6.50
2023-02-21T02:32:27.440Z,6.00
2023-02-21T02:35:00.719Z,8.00
2023-02-21T02:40:04.615Z,5.80
2023-02-21T02:42:51.337Z,5.90
2023-02-21T02:45:26.692Z,7.40
2023-02-21T02:47:59.929Z,5.30
2023-02-21T02:50:34.104Z,6.60
2023-02-21T02:53:05.015Z,7.40
2023-02-21T02:55:39.231Z,5.50
2023-02-21T02:58:11.193Z,4.60
2023-02-21T03:00:46.084Z,6.10
2023-02-21T03:03:32.777Z,5.10
2023-02-21T03:06:08.684Z,5.40
2023-02-21T03:08:43.020Z,7.10
2023-02-21T03:11:16.647Z,4.90
2023-02-21T03:13:50.172Z,5.20
2023-02-21T03:16:27.122Z,5.70
2023-02-21T03:18:59.753Z,5.90
2023-02-21T03:21:33.165Z,5.80
2023-02-21T03:24:05.879Z,6.10
2023-02-21T03:26:38.720Z,8.40
2023-02-21T03:29:25.523Z,6.90
2023-02-21T03:31:58.378Z,6.30
2023-02-21T03:34:29.122Z,6.20
2023-02-21T03:37:00.192Z,7.60
2023-02-21T03:39:32.330Z,8.90
2023-02-21T03:42:04.115Z,6.80
2023-02-21T03:44:35.766Z,6.30
2023-02-21T03:47:07.285Z,7.00
2023-02-21T03:49:38.150Z,7.80
2023-02-21T03:52:13.043Z,5.00
2023-02-21T03:54:44.163Z,6.40
2023-02-21T03:57:17.806Z,4.90
2023-02-21T03:59:50.137Z,5.80
2023-02-21T04:02:21.931Z,7.20
2023-02-21T04:04:53.007Z,6.20
2023-02-21T04:07:26.602Z,5.90
2023-02-21T04:09:57.546Z,5.60
2023-02-21T04:12:40.564Z,6.90
2023-02-21T04:15:12.727Z,6.40
2023-02-21T04:17:43.869Z,7.00
2023-02-21T04:20:15.399Z,5.00
2023-02-21T04:23:02.756Z,5.50
2023-02-21T04:25:37.064Z,6.90
2023-02-21T04:28:13.730Z,5.20
2023-02-21T04:30:44.362Z,6.10
2023-02-21T04:33:15.620Z,5.10
2023-02-21T04:35:46.341Z,5.80
2023-02-21T04:38:28.035Z,7.60
2023-02-21T04:40:59.433Z,4.60
2023-02-21T04:43:30.472Z,5.10
2023-02-21T04:46:01.706Z,4.90
2023-02-21T04:48:33.926Z,6.60
2023-02-21T04:51:15.096Z,5.40
2023-02-21T04:53:48.148Z,5.80
2023-02-21T04:56:19.241Z,5.90
2023-02-21T04:58:50.068Z,4.80
2023-02-21T05:01:20.839Z,6.00
2023-02-21T05:03:51.948Z,5.10
2023-02-21T05:06:23.715Z,5.00
2023-02-21T05:08:54.461Z,5.60
2023-02-21T05:11:25.490Z,4.20
2023-02-21T05:13:56.129Z,4.90
2023-02-21T05:16:27.200Z,6.30
2023-02-21T05:18:58.402Z,6.50
2023-02-21T05:21:29.084Z,5.30
2023-02-21T05:23:59.660Z,5.80
2023-02-21T05:26:34.134Z,5.60
2023-02-21T05:29:05.428Z,5.40
2023-02-21T05:31:36.321Z,7.10
2023-02-21T05:34:07.146Z,6.70
2023-02-21T05:36:39.682Z,5.50
2023-02-21T05:39:11.667Z,6.30
2023-02-21T05:41:47.140Z,5.60
2023-02-21T05:44:18.466Z,7.20
2023-02-21T05:46:49.367Z,5.30
2023-02-21T05:49:20.202Z,6.10
2023-02-21T05:51:51.080Z,6.60
2023-02-21T05:54:22.660Z,5.60
2023-02-21T05:56:53.736Z,6.80
2023-02-21T05:59:25.224Z,8.50
2023-02-21T06:01:57.004Z,7.90
2023-02-21T06:04:27.569Z,6.40
2023-02-21T06:06:58.532Z,6.00
2023-02-21T06:09:31.288Z,9.50
2023-02-21T06:12:02.116Z,7.40
2023-02-21T06:14:33.056Z,7.90
2023-02-21T06:17:03.854Z,8.20
2023-02-21T06:19:34.925Z,7.60
2023-02-21T06:22:05.646Z,5.80
2023-02-21T06:24:36.746Z,5.90
2023-02-21T06:27:07.560Z,7.40
2023-02-21T06:29:38.381Z,7.30
2023-02-21T06:32:09.214Z,7.00
2023-02-21T06:34:40.478Z,7.50
2023-02-21T06:37:11.470Z,11.20
2023-02-21T06:39:43.111Z,9.00
2023-02-21T06:42:15.074Z,6.60
2023-02-21T06:44:46.550Z,8.00
2023-02-21T06:47:18.036Z,8.00
2023-02-21T06:49:48.957Z,6.10
2023-02-21T06:52:19.959Z,7.60
2023-02-21T06:54:52.882Z,7.30
2023-02-21T06:57:24.023Z,7.80
2023-02-21T06:59:55.221Z,7.90
2023-02-21T07:02:26.313Z,7.00
2023-02-21T07:04:58.154Z,6.70
2023-02-21T07:07:29.041Z,7.30
2023-02-21T07:10:00.292Z,8.50
2023-02-21T07:12:31.209Z,7.40
2023-02-21T07:15:02.431Z,8.00
2023-02-21T07:17:33.472Z,7.90
2023-02-21T07:20:04.718Z,6.90
2023-02-21T07:22:35.565Z,7.60
2023-02-21T07:25:06.991Z,5.60
2023-02-21T07:27:38.035Z,8.50
2023-02-21T07:30:09.902Z,8.70
2023-02-21T07:32:41.349Z,7.00
2023-02-21T07:35:12.496Z,5.90
2023-02-21T07:37:43.635Z,10.00
2023-02-21T07:40:14.671Z,9.80
2023-02-21T07:42:45.610Z,7.40
2023-02-21T07:45:17.214Z,7.10
2023-02-21T07:47:49.439Z,7.80
2023-02-21T07:50:20.724Z,7.60
2023-02-21T07:52:51.771Z,7.40
2023-02-21T07:55:23.327Z,7.90
2023-02-21T07:57:54.421Z,8.00
2023-02-21T08:00:26.026Z,8.30
2023-02-21T08:02:57.156Z,9.40
2023-02-21T08:05:28.570Z,6.80
2023-02-21T08:07:59.605Z,7.50
2023-02-21T08:10:30.625Z,9.30
2023-02-21T08:13:01.796Z,8.30
2023-02-21T08:15:32.871Z,10.00
2023-02-21T08:18:04.069Z,8.30
2023-02-21T08:20:35.458Z,8.50
2023-02-21T08:23:06.498Z,8.20
2023-02-21T08:25:37.598Z,9.70
2023-02-21T08:28:08.544Z,7.90
2023-02-21T08:30:39.623Z,7.50
2023-02-21T08:33:10.613Z,6.30
2023-02-21T08:35:41.554Z,7.20
2023-02-21T08:38:12.517Z,7.90
2023-02-21T08:40:43.841Z,8.30
2023-02-21T08:43:14.580Z,6.50
2023-02-21T08:45:45.415Z,6.50
2023-02-21T08:48:16.290Z,7.60
2023-02-21T08:50:47.492Z,7.50
2023-02-21T08:53:19.246Z,8.00
2023-02-21T08:55:49.976Z,9.10
2023-02-21T08:58:20.928Z,7.00
2023-02-21T09:00:52.052Z,6.30
2023-02-21T09:03:23.507Z,6.30
2023-02-21T09:05:54.456Z,5.80
2023-02-21T09:08:26.863Z,6.80
2023-02-21T09:11:00.940Z,6.40
2023-02-21T09:13:33.265Z,7.80
2023-02-21T09:16:04.756Z,7.30
2023-02-21T09:18:35.747Z,6.30
2023-02-21T09:21:07.828Z,7.80
2023-02-21T09:23:38.796Z,6.70
2023-02-21T09:26:09.576Z,6.70
2023-02-21T09:28:43.948Z,7.10
2023-02-21T09:31:15.175Z,6.80
2023-02-21T09:33:48.920Z,7.60
2023-02-21T09:38:50.688Z,9.00
2023-02-21T09:41:22.622Z,10.10
2023-02-21T09:43:55.211Z,6.40
2023-02-21T09:46:31.290Z,9.20
2023-02-21T09:49:02.554Z,8.60
2023-02-21T09:51:34.579Z,10.10
2023-02-21T09:54:05.617Z,9.70
2023-02-21T09:56:37.578Z,8.20
2023-02-21T09:59:10.346Z,8.80
2023-02-21T10:01:49.652Z,6.10
2023-02-21T10:04:23.486Z,8.50
2023-02-21T10:06:57.608Z,7.30
2023-02-21T10:09:33.081Z,7.10
2023-02-21T10:12:10.078Z,6.30
2023-02-21T10:14:55.260Z,9.40
2023-02-21T10:17:29.637Z,7.10
2023-02-21T10:20:01.777Z,6.70
2023-02-21T10:22:35.036Z,7.30
2023-02-21T10:25:11.572Z,6.10
2023-02-21T10:27:42.492Z,7.40
2023-02-21T10:30:18.121Z,5.50
2023-02-21T10:32:49.187Z,6.00
2023-02-21T10:35:20.049Z,6.80
2023-02-21T10:37:53.014Z,8.10
2023-02-21T10:40:35.496Z,8.30
2023-02-21T10:43:09.214Z,9.20
2023-02-21T10:45:45.528Z,7.70
2023-02-21T10:48:18.399Z,7.20
2023-02-21T10:50:52.987Z,7.50
2023-02-21T10:53:26.503Z,5.40
2023-02-21T10:56:10.673Z,4.50
2023-02-21T10:58:41.772Z,4.60
2023-02-21T11:01:17.406Z,4.40
2023-02-21T11:03:50.246Z,4.60
2023-02-21T11:06:27.919Z,4.40
2023-02-21T11:09:03.490Z,3.90
2023-02-21T11:11:37.474Z,4.00
2023-02-21T11:14:25.289Z,4.60
2023-02-21T11:17:16.543Z,4.00
2023-02-21T11:19:48.695Z,7.10
2023-02-21T11:22:22.068Z,6.60
2023-02-21T11:24:54.926Z,4.80
2023-02-21T11:27:26.143Z,4.40
2023-02-21T11:29:57.434Z,4.80
2023-02-21T11:32:31.240Z,5.70
2023-02-21T11:37:32.607Z,4.90
2023-02-21T11:40:06.019Z,5.00
2023-02-21T11:42:37.154Z,4.90
2023-02-21T11:45:13.208Z,5.80
2023-02-21T11:47:47.886Z,5.00
2023-02-21T11:50:23.494Z,5.50
2023-02-21T11:52:58.216Z,5.60
2023-02-21T11:55:29.316Z,4.80
2023-02-21T11:58:13.803Z,4.20
2023-02-21T12:01:02.190Z,4.00
2023-02-21T12:03:37.637Z,4.90
2023-02-21T12:06:10.913Z,3.80
2023-02-21T12:11:18.175Z,4.40
2023-02-21T12:13:54.042Z,4.30
2023-02-21T12:16:30.592Z,4.40
2023-02-21T12:19:17.108Z,5.30
2023-02-21T12:21:56.692Z,4.40
2023-02-21T12:24:36.707Z,4.30
2023-02-21T12:27:12.714Z,4.90
2023-02-21T12:29:52.680Z,4.70
2023-02-21T12:32:34.009Z,7.50
2023-02-21T12:35:15.001Z,5.80
2023-02-21T12:37:51.039Z,4.20
2023-02-21T12:40:26.424Z,4.20
2023-02-21T12:43:09.886Z,4.50
2023-02-21T12:45:51.828Z,4.80
2023-02-21T12:48:27.135Z,4.40
2023-02-21T12:51:00.100Z,5.20
2023-02-21T12:53:34.229Z,4.90
2023-02-21T12:56:08.763Z,5.20
2023-02-21T12:58:41.435Z,6.90
2023-02-21T13:01:16.893Z,5.10
2023-02-21T13:03:53.922Z,4.80
2023-02-21T13:06:30.562Z,5.30
2023-02-21T13:09:13.144Z,4.90
2023-02-21T13:11:48.171Z,5.30
2023-02-21T13:14:19.602Z,6.90
2023-02-21T13:16:57.946Z,6.80
2023-02-21T13:19:33.216Z,6.70
2023-02-21T13:22:26.267Z,5.40
2023-02-21T13:25:22.540Z,5.00
2023-02-21T13:28:06.402Z,4.90
2023-02-21T13:33:07.870Z,5.00
2023-02-21T13:35:39.620Z,6.20
2023-02-21T13:38:12.557Z,5.40
2023-02-21T13:40:47.777Z,5.30
2023-02-21T13:43:22.334Z,5.80
2023-02-21T13:45:53.820Z,5.60
2023-02-21T13:48:26.520Z,6.70
2023-02-21T13:50:57.894Z,6.50
2023-02-21T13:53:32.831Z,4.50
2023-02-21T13:56:17.113Z,3.70
2023-02-21T13:58:49.305Z,4.60
2023-02-21T14:01:26.786Z,5.10
2023-02-21T14:03:58.776Z,5.50
2023-02-21T14:06:37.021Z,5.00
2023-02-21T14:09:11.927Z,4.90
2023-02-21T14:11:47.855Z,5.30
2023-02-21T14:14:26.715Z,7.00
2023-02-21T14:17:02.338Z,5.40
2023-02-21T14:19:38.882Z,5.70
2023-02-21T14:22:13.654Z,7.10
2023-02-21T14:24:48.575Z,5.80
2023-02-21T14:27:37.160Z,6.40
2023-02-21T14:30:24.094Z,6.30
2023-02-21T14:32:57.648Z,5.30
2023-02-21T14:35:33.670Z,5.40
2023-02-21T14:38:09.469Z,5.20
2023-02-21T14:40:47.670Z,6.50
2023-02-21T14:43:34.147Z,5.40
2023-02-21T14:46:24.990Z,5.00
2023-02-21T14:49:08.369Z,5.20
2023-02-21T14:51:48.951Z,4.80
2023-02-21T14:54:36.322Z,5.10
2023-02-21T14:57:17.823Z,5.50
2023-02-21T14:59:56.665Z,5.60
2023-02-21T15:02:31.118Z,4.40
2023-02-21T15:05:09.364Z,5.60
2023-02-21T15:07:43.502Z,5.00
2023-02-21T15:10:21.273Z,6.60
2023-02-21T15:12:53.640Z,4.90
2023-02-21T15:15:26.150Z,4.90
2023-02-21T15:18:03.434Z,4.20
2023-02-21T15:20:35.522Z,4.40
2023-02-21T15:23:14.481Z,5.00
2023-02-21T15:25:46.219Z,5.40
2023-02-21T15:28:26.505Z,5.50
2023-02-21T15:31:02.162Z,5.60
2023-02-21T15:33:34.247Z,6.30
2023-02-21T15:36:07.359Z,4.80
2023-02-21T15:38:43.440Z,6.20
2023-02-21T15:41:20.010Z,6.30
2023-02-21T15:43:54.936Z,4.70
2023-02-21T15:46:27.249Z,5.10
2023-02-21T15:49:01.383Z,4.30
2023-02-21T15:51:33.792Z,4.80
2023-02-21T15:54:10.948Z,6.70
2023-02-21T15:56:43.101Z,5.30
2023-02-21T15:59:18.797Z,4.50
2023-02-21T16:02:03.305Z,4.80
2023-02-21T16:04:36.975Z,5.20
2023-02-21T16:07:16.720Z,5.40
2023-02-21T16:09:52.617Z,5.70
2023-02-21T16:12:32.615Z,5.00
2023-02-21T16:15:04.670Z,6.60
2023-02-21T16:17:36.793Z,5.20
2023-02-21T16:20:16.968Z,5.00
2023-02-21T16:23:08.162Z,8.10
2023-02-21T16:25:55.902Z,5.20
2023-02-21T16:28:31.761Z,6.00
2023-02-21T16:31:03.951Z,5.60
2023-02-21T16:33:35.417Z,4.60
2023-02-21T16:36:09.201Z,5.00
2023-02-21T16:41:16.445Z,5.40
2023-02-21T16:43:47.979Z,5.00
2023-02-21T16:46:24.750Z,5.20
2023-02-21T16:48:56.549Z,5.60
2023-02-21T16:51:35.158Z,6.30
2023-02-21T16:54:07.085Z,5.40
2023-02-21T16:56:40.059Z,6.90
2023-02-21T16:59:12.640Z,6.70
2023-02-21T17:01:43.812Z,6.30
2023-02-21T17:04:22.923Z,5.60
2023-02-21T17:06:55.860Z,6.50
2023-02-21T17:09:27.649Z,6.40
2023-02-21T17:11:58.440Z,7.00
2023-02-21T17:14:29.788Z,7.70
2023-02-21T17:17:05.873Z,7.10
2023-02-21T17:19:36.997Z,7.60
2023-02-21T17:22:07.823Z,6.50
2023-02-21T17:24:43.333Z,6.70
2023-02-21T17:27:19.416Z,6.70
2023-02-21T17:29:50.279Z,6.60
2023-02-21T17:32:24.995Z,7.80
2023-02-21T17:35:00.374Z,6.90
2023-02-21T17:37:31.268Z,9.10
2023-02-21T17:40:02.327Z,8.20
2023-02-21T17:42:33.149Z,8.10
2023-02-21T17:45:09.854Z,7.90
2023-02-21T17:47:40.880Z,7.70
2023-02-21T17:50:18.426Z,7.80
2023-02-21T17:52:54.494Z,9.90
2023-02-21T17:55:27.081Z,9.30
2023-02-21T17:57:58.158Z,7.20
2023-02-21T18:00:30.708Z,10.00
2023-02-21T18:03:07.116Z,9.60
2023-02-21T18:05:42.976Z,9.80
2023-02-21T18:08:18.785Z,9.80
2023-02-21T18:10:50.255Z,9.20
2023-02-21T18:13:26.090Z,8.90
2023-02-21T18:15:57.759Z,7.70
2023-02-21T18:18:28.273Z,8.50
2023-02-21T18:21:04.421Z,11.50
2023-02-21T18:23:35.672Z,10.90
2023-02-21T18:26:06.506Z,9.20
2023-02-21T18:28:37.337Z,10.80
2023-02-21T18:31:16.146Z,9.80
2023-02-21T18:33:47.766Z,13.90
2023-02-21T18:36:18.709Z,10.10
2023-02-21T18:38:54.304Z,12.70
2023-02-21T18:41:25.649Z,12.60
2023-02-21T18:44:00.497Z,13.20
2023-02-21T18:46:33.162Z,14.30
2023-02-21T18:49:03.791Z,13.60
2023-02-21T18:51:37.849Z,10.90
2023-02-21T18:54:09.254Z,14.00
2023-02-21T18:56:40.453Z,12.30
2023-02-21T18:59:11.231Z,13.00
2023-02-21T19:01:48.974Z,17.70
2023-02-21T19:04:20.564Z,17.80
2023-02-21T19:06:51.830Z,14.80
2023-02-21T19:09:23.183Z,19.50
2023-02-21T19:11:59.199Z,18.60
2023-02-21T19:14:30.459Z,12.60
2023-02-21T19:17:01.725Z,15.00
2023-02-21T19:19:32.560Z,16.60
2023-02-21T19:22:07.572Z,16.80
2023-02-21T19:24:42.729Z,14.40
2023-02-21T19:27:13.530Z,18.20
2023-02-21T19:29:44.815Z,19.60
2023-02-21T19:32:16.105Z,14.30
2023-02-21T19:34:50.077Z,12.60
2023-02-21T19:37:21.616Z,16.70
2023-02-21T19:39:52.964Z,20.20
2023-02-21T19:42:23.798Z,16.30
2023-02-21T19:44:58.981Z,15.20
2023-02-21T19:47:30.305Z,17.60
2023-02-21T19:50:01.229Z,16.00
2023-02-21T19:52:37.034Z,16.10
2023-02-21T19:55:17.106Z,16.30
2023-02-21T19:57:57.094Z,15.40
2023-02-21T20:00:32.498Z,17.50
2023-02-21T20:03:08.274Z,18.20
2023-02-21T20:05:39.756Z,21.10
2023-02-21T20:08:14.655Z,15.10
2023-02-21T20:10:51.274Z,15.20
2023-02-21T20:13:22.259Z,14.20
2023-02-21T20:15:57.165Z,16.60
2023-02-21T20:18:28.753Z,19.10
2023-02-21T20:20:59.580Z,19.20
2023-02-21T20:23:31.009Z,13.30
2023-02-21T20:26:01.871Z,16.30
2023-02-21T20:28:33.422Z,17.10
2023-02-21T20:31:04.462Z,19.70
2023-02-21T20:33:37.152Z,14.10
2023-02-21T20:36:09.214Z,14.10
2023-02-21T20:38:40.131Z,17.00
2023-02-21T20:41:11.602Z,14.30
2023-02-21T20:43:42.623Z,14.20
2023-02-21T20:46:17.875Z,17.00
2023-02-21T20:48:49.268Z,17.90
2023-02-21T20:51:28.037Z,15.80
2023-02-21T20:54:05.038Z,16.30
2023-02-21T20:56:36.562Z,18.60
2023-02-21T20:59:14.533Z,21.70
2023-02-21T21:01:49.833Z,17.00
2023-02-21T21:04:22.920Z,16.90
2023-02-21T21:06:54.304Z,26.80
2023-02-21T21:09:35.352Z,19.10
2023-02-21T21:12:17.639Z,20.40
2023-02-21T21:14:49.423Z,22.90
2023-02-21T21:17:21.384Z,22.30
2023-02-21T21:19:53.635Z,17.10
2023-02-21T21:22:25.791Z,16.60
2023-02-21T21:24:56.768Z,18.90
2023-02-21T21:27:28.376Z,19.00
2023-02-21T21:29:59.418Z,20.50
2023-02-21T21:32:30.359Z,15.60
2023-02-21T21:35:05.704Z,18.70
2023-02-21T21:37:37.557Z,17.40
2023-02-21T21:40:16.603Z,17.20
2023-02-21T21:42:49.276Z,15.20
2023-02-21T21:45:23.855Z,15.20
2023-02-21T21:47:58.921Z,19.20
2023-02-21T21:50:30.159Z,14.70
2023-02-21T21:53:01.134Z,17.10
2023-02-21T21:55:32.207Z,16.70
2023-02-21T21:58:07.181Z,14.60
2023-02-21T22:00:42.278Z,13.40
2023-02-21T22:03:14.572Z,18.30
2023-02-21T22:05:45.913Z,17.90
2023-02-21T22:08:18.189Z,16.90
2023-02-21T22:10:50.320Z,19.00
2023-02-21T22:13:22.032Z,21.20
2023-02-21T22:15:53.362Z,16.70
2023-02-21T22:18:24.324Z,19.40
2023-02-21T22:20:55.277Z,16.70
2023-02-21T22:23:26.700Z,19.60
2023-02-21T22:25:58.428Z,19.00
2023-02-21T22:28:29.284Z,24.60
2023-02-21T22:31:00.327Z,22.40
2023-02-21T22:33:31.132Z,21.70
2023-02-21T22:36:03.934Z,19.40
2023-02-21T22:38:34.981Z,20.70
2023-02-21T22:41:05.946Z,19.40
2023-02-21T22:43:37.157Z,25.20
2023-02-21T22:46:08.785Z,23.70
2023-02-21T22:48:40.409Z,32.50
2023-02-21T22:51:11.234Z,24.10
2023-02-21T22:53:43.610Z,34.20
2023-02-21T22:56:15.366Z,32.90
2023-02-21T22:58:46.739Z,27.20
2023-02-21T23:01:21.098Z,23.50
2023-02-21T23:03:51.828Z,27.00
2023-02-21T23:06:23.268Z,27.30
2023-02-21T23:08:54.419Z,26.40
2023-02-21T23:11:25.560Z,24.20
2023-02-21T23:13:57.654Z,27.00
2023-02-21T23:16:28.584Z,20.90
2023-02-21T23:18:59.604Z,18.60
2023-02-21T23:21:30.796Z,22.90
2023-02-21T23:24:01.993Z,25.20
2023-02-21T23:26:32.959Z,26.70
2023-02-21T23:29:03.768Z,33.30
2023-02-21T23:31:34.758Z,23.40
2023-02-21T23:34:05.955Z,28.90
2023-02-21T23:36:39.534Z,25.20
2023-02-21T23:41:41.292Z,25.90
2023-02-21T23:44:12.983Z,22.30
2023-02-21T23:46:44.644Z,23.10
2023-02-21T23:49:16.740Z,23.50
2023-02-21T23:51:48.726Z,29.70
2023-02-21T23:54:21.240Z,26.60
2023-02-21T23:56:52.762Z,21.90
2023-02-21T23:59:23.527Z,20.40
